Terminal Aerodrome Forecast
Issued by NWS Cleveland, OH

Home | Current Version | Previous Version | Graphics & Text | Print | Product List | Glossary Off
Versions: 1 2 3 4 5 6 7 8 9 10 11 12 13 14 15 16

000
FTUS41 KCLE 291129
TAFCLE
TAF
KCLE 291129Z 2912/3018 15006KT P6SM FEW100 BKN200
     FM291500 20009KT P6SM BKN060
     FM292000 20010KT P6SM VCTS BKN060CB=

USA.gov is the U.S. government's official web portal to all federal, state and local government web resources and services.